Portada
METAR-TAF:

METAR-TAF

Aeroports :

Al-Kuwait, Kuwait

latitud: 29-13N, longitud: 047-59E, altitud: 55 m

Observació

L'informe es va fer fa 18 minuts, a les 21:00 UTC
Vent 13 kt del Nord/Nord-Oest
Temperatura 30°C
Humitat 25%
Pressió 1011 hPa
Visibilitat 10 km o més
sense núvols per sota de 1500 mi sense presència de cumulonimbus.

METAR: OKBK 252100Z 34013KT CAVOK 30/08 Q1011 NOSIG

Hora: 00:18 (21:18 UTC)

Pronòstic

L'informe es va fer fa 4 hores i 33 minuts, a les 16:45 UTC
Pronòstic vàlid del 25 a les 18 UTC al 26 a les 24 UTC
Vent 12 kt del Nord amb ràfegues de 25 kt
Visibilitat: 7000 m
Temporalment
l' 25 a les 21 UTC al 26 a les 06 UTC
Visibilitat: 3000 m
torb alta de pols

TAF: OKBK 251645Z 2518/2624 35012G25KT 7000 NSC TEMPO 2521/2606 3000 BLDU

Observacions i pronòstics meteorològics de més de 4000 aeroports (METAR i TAF).

Les estacions disponibles són els punts grocs i vermells al mapa.

Posi el ratolí al punt desitjat per veure el nom de l'estació.

Feu clic per veure les observacions i els pronòstics meteorològics.

Per canviar el mapa: feu clic els botons verds amb una creu de color negre per apropar; al botó verd amb un guió per allunyar la imatge; o en les fletxes verdes per a mapes adjacents.


METAR-TAF: